Time;durP1;ratioP1;P1;durP2;ratioP2;P2;SDS_P1;SDS_P2;PMS_P1;PMS_P2;Temp;Humidity;BMP_temperature;BMP_pressure;BME280_temperature;BME280_humidity;BME280_pressure;Samples;Min_cycle;Max_cycle;Signal;HPM_P1;HPM_P2
2023/01/20 00:01:11;;;;;;;12.20;6.88;;;;;;;;;;5022300;28;20049;-69
2023/01/20 00:03:38;;;;;;;11.98;7.13;;;;;;;;;;5021865;28;20120;-69
2023/01/20 00:06:03;;;;;;;11.90;7.63;;;;;;;;;;5022820;28;20084;-68
2023/01/20 00:08:29;;;;;;;12.13;7.25;;;;;;;;;;5023348;28;20140;-67
2023/01/20 00:10:55;;;;;;;12.88;6.97;;;;;;;;;;5023345;28;20130;-68
2023/01/20 00:13:20;;;;;;;13.82;7.72;;;;;;;;;;5021799;28;20132;-67
2023/01/20 00:15:47;;;;;;;12.82;7.57;;;;;;;;;;5022314;28;20046;-68
2023/01/20 00:18:12;;;;;;;12.57;7.63;;;;;;;;;;5023115;28;20091;-68
2023/01/20 00:20:38;;;;;;;13.77;8.15;;;;;;;;;;5023361;28;20538;-68
2023/01/20 00:23:03;;;;;;;13.25;7.75;;;;;;;;;;5021380;28;20082;-68
2023/01/20 00:25:29;;;;;;;13.05;7.47;;;;;;;;;;5022375;28;20041;-67
2023/01/20 00:27:54;;;;;;;13.38;7.38;;;;;;;;;;5022511;28;20045;-69
2023/01/20 00:30:19;;;;;;;12.95;7.80;;;;;;;;;;5023189;28;20745;-68
2023/01/20 00:32:45;;;;;;;13.00;7.03;;;;;;;;;;5022144;28;20045;-68
2023/01/20 00:35:11;;;;;;;13.32;7.60;;;;;;;;;;5022361;28;20501;-66
2023/01/20 00:37:37;;;;;;;12.85;6.80;;;;;;;;;;5022002;28;20049;-66
2023/01/20 00:40:03;;;;;;;13.02;6.88;;;;;;;;;;5022594;28;20644;-66
2023/01/20 00:42:28;;;;;;;12.52;7.50;;;;;;;;;;5022509;28;20785;-65
2023/01/20 00:44:53;;;;;;;10.73;6.70;;;;;;;;;;5037256;28;20391;-64
2023/01/20 00:47:19;;;;;;;11.73;6.82;;;;;;;;;;5020909;28;20136;-66
2023/01/20 00:49:46;;;;;;;13.15;7.05;;;;;;;;;;5022256;28;20450;-66
2023/01/20 00:52:11;;;;;;;13.93;7.03;;;;;;;;;;5022390;28;20069;-67
2023/01/20 00:54:36;;;;;;;10.07;6.63;;;;;;;;;;5021967;28;20124;-68
2023/01/20 00:57:02;;;;;;;9.90;6.57;;;;;;;;;;5021621;28;20092;-68
2023/01/20 00:59:27;;;;;;;8.80;5.70;;;;;;;;;;5021072;28;20053;-69
2023/01/20 01:01:53;;;;;;;9.93;5.95;;;;;;;;;;5022526;28;20072;-68
2023/01/20 01:04:18;;;;;;;11.80;6.15;;;;;;;;;;5036527;28;20045;-64
2023/01/20 01:06:43;;;;;;;10.45;6.10;;;;;;;;;;5022549;28;20060;-66
2023/01/20 01:09:09;;;;;;;10.50;6.53;;;;;;;;;;5021280;28;20140;-65
2023/01/20 01:11:34;;;;;;;11.57;6.60;;;;;;;;;;5022100;28;20081;-66
2023/01/20 01:14:00;;;;;;;14.10;6.60;;;;;;;;;;5021420;28;20072;-65
2023/01/20 01:16:25;;;;;;;13.20;7.40;;;;;;;;;;5022036;28;20041;-65
2023/01/20 01:18:54;;;;;;;8.90;6.43;;;;;;;;;;5022082;28;20061;-66
2023/01/20 01:21:20;;;;;;;11.45;6.88;;;;;;;;;;5020442;28;20047;-67
2023/01/20 01:23:45;;;;;;;13.45;7.32;;;;;;;;;;5019243;28;20092;-65
2023/01/20 01:26:11;;;;;;;13.43;7.50;;;;;;;;;;5018353;28;20457;-66
2023/01/20 01:28:37;;;;;;;16.58;7.47;;;;;;;;;;5020331;28;20124;-67
2023/01/20 01:31:05;;;;;;;15.27;8.57;;;;;;;;;;5019351;28;20053;-65
2023/01/20 01:33:31;;;;;;;13.43;7.47;;;;;;;;;;5018481;28;20061;-69
2023/01/20 01:35:58;;;;;;;11.15;6.70;;;;;;;;;;5021602;28;20049;-67
2023/01/20 01:38:24;;;;;;;13.60;7.45;;;;;;;;;;5021186;28;20103;-67
2023/01/20 01:40:51;;;;;;;15.60;7.78;;;;;;;;;;5021575;28;20284;-68
2023/01/20 01:43:25;;;;;;;14.02;7.35;;;;;;;;;;5020497;28;20038;-67
2023/01/20 01:45:51;;;;;;;15.65;7.93;;;;;;;;;;5020026;28;20049;-68
2023/01/20 01:48:24;;;;;;;11.93;7.50;;;;;;;;;;5021018;28;20056;-67
2023/01/20 01:51:01;;;;;;;14.13;8.15;;;;;;;;;;5021350;28;20045;-67
2023/01/20 01:53:29;;;;;;;14.60;8.27;;;;;;;;;;5020459;28;20045;-68
2023/01/20 01:55:59;;;;;;;16.58;8.73;;;;;;;;;;5020037;28;20072;-67
2023/01/20 01:58:29;;;;;;;13.40;8.50;;;;;;;;;;5020933;28;20107;-68
2023/01/20 02:00:55;;;;;;;17.38;8.65;;;;;;;;;;5020977;28;20050;-68
2023/01/20 02:03:21;;;;;;;15.85;9.77;;;;;;;;;;5019839;28;20056;-65
2023/01/20 02:05:49;;;;;;;15.95;9.27;;;;;;;;;;5036277;28;20490;-69
2023/01/20 02:08:15;;;;;;;17.55;9.60;;;;;;;;;;5021479;28;20053;-68
2023/01/20 02:10:40;;;;;;;15.52;9.00;;;;;;;;;;5021036;28;20057;-66
2023/01/20 02:13:06;;;;;;;15.90;8.27;;;;;;;;;;5019788;28;20049;-68
2023/01/20 02:15:40;;;;;;;14.13;8.82;;;;;;;;;;5020139;28;20496;-67
2023/01/20 02:18:35;;;;;;;20.17;8.98;;;;;;;;;;5019082;28;20057;-68
2023/01/20 02:21:20;;;;;;;13.60;8.05;;;;;;;;;;5011394;28;20061;-74
2023/01/20 02:24:13;;;;;;;16.00;8.32;;;;;;;;;;5020504;28;20487;-69
2023/01/20 02:27:09;;;;;;;23.10;8.20;;;;;;;;;;5020430;28;20084;-67
2023/01/20 02:29:40;;;;;;;15.48;8.95;;;;;;;;;;5040835;28;20469;-66
2023/01/20 02:32:05;;;;;;;16.50;8.70;;;;;;;;;;5019896;28;20049;-66
2023/01/20 02:34:43;;;;;;;17.52;8.43;;;;;;;;;;5015320;28;20060;-67
2023/01/20 02:37:20;;;;;;;16.30;9.10;;;;;;;;;;5019259;28;20075;-66
2023/01/20 02:40:08;;;;;;;15.05;9.15;;;;;;;;;;5035003;28;20067;-68
2023/01/20 02:42:43;;;;;;;18.23;10.02;;;;;;;;;;5020304;28;20155;-66
2023/01/20 02:45:23;;;;;;;19.25;9.52;;;;;;;;;;5019159;28;20061;-68
2023/01/20 02:47:51;;;;;;;15.32;9.43;;;;;;;;;;5020730;28;20072;-66
2023/01/20 02:50:24;;;;;;;12.50;7.78;;;;;;;;;;5019313;28;20507;-68
2023/01/20 02:52:53;;;;;;;15.88;9.63;;;;;;;;;;5019873;28;20084;-67
2023/01/20 02:55:33;;;;;;;16.50;8.82;;;;;;;;;;5020056;28;20141;-66
2023/01/20 02:58:15;;;;;;;13.40;7.72;;;;;;;;;;5020370;28;20153;-66
2023/01/20 03:00:50;;;;;;;14.75;8.93;;;;;;;;;;5020120;28;20045;-66
2023/01/20 03:03:22;;;;;;;14.98;8.63;;;;;;;;;;5018212;28;20107;-68
2023/01/20 03:05:54;;;;;;;16.40;8.73;;;;;;;;;;5020554;28;20057;-69
2023/01/20 03:08:23;;;;;;;14.65;8.07;;;;;;;;;;5020008;28;20093;-67
2023/01/20 03:10:51;;;;;;;12.98;7.97;;;;;;;;;;5020355;28;20449;-67
2023/01/20 03:13:27;;;;;;;16.33;8.75;;;;;;;;;;5018154;28;20045;-69
2023/01/20 03:16:07;;;;;;;12.75;7.63;;;;;;;;;;5019921;28;20088;-66
2023/01/20 03:18:34;;;;;;;14.15;8.07;;;;;;;;;;5020259;28;20614;-67
2023/01/20 03:21:02;;;;;;;17.55;8.43;;;;;;;;;;5020016;28;20041;-68
2023/01/20 03:23:32;;;;;;;13.18;7.85;;;;;;;;;;5018119;28;20046;-68
2023/01/20 03:25:58;;;;;;;13.10;7.53;;;;;;;;;;5020061;28;20049;-67
2023/01/20 03:28:23;;;;;;;11.55;6.78;;;;;;;;;;5024093;28;20057;-67
2023/01/20 03:30:49;;;;;;;11.70;7.20;;;;;;;;;;5039235;28;20037;-67
2023/01/20 03:33:16;;;;;;;12.50;7.47;;;;;;;;;;5022515;28;20056;-69
2023/01/20 03:35:42;;;;;;;13.15;7.38;;;;;;;;;;5022861;28;20060;-67
2023/01/20 03:38:08;;;;;;;10.57;6.50;;;;;;;;;;5024051;28;20057;-68
2023/01/20 03:40:41;;;;;;;11.98;6.90;;;;;;;;;;5023743;28;20514;-68
2023/01/20 03:43:16;;;;;;;9.57;6.45;;;;;;;;;;5021302;28;20045;-67
2023/01/20 03:45:59;;;;;;;13.30;6.38;;;;;;;;;;5022604;28;20081;-65
2023/01/20 03:48:34;;;;;;;13.48;7.72;;;;;;;;;;5023006;28;20041;-68
2023/01/20 03:51:14;;;;;;;10.15;7.35;;;;;;;;;;5023350;28;20227;-67
2023/01/20 03:53:48;;;;;;;13.35;7.70;;;;;;;;;;5050882;28;20049;-66
2023/01/20 03:56:22;;;;;;;13.40;8.07;;;;;;;;;;5022670;28;20502;-67
2023/01/20 03:58:52;;;;;;;11.73;6.90;;;;;;;;;;5023478;28;20056;-68
2023/01/20 04:01:27;;;;;;;11.55;6.82;;;;;;;;;;5022774;28;20087;-69
2023/01/20 04:03:53;;;;;;;13.35;7.80;;;;;;;;;;5022551;28;20053;-67
2023/01/20 04:06:22;;;;;;;10.07;6.82;;;;;;;;;;5023156;28;20041;-68
2023/01/20 04:08:54;;;;;;;14.18;7.97;;;;;;;;;;5022329;28;20099;-67
2023/01/20 04:11:20;;;;;;;13.50;7.40;;;;;;;;;;5037950;28;20065;-68
2023/01/20 04:13:45;;;;;;;13.02;7.90;;;;;;;;;;5022590;28;20461;-68
2023/01/20 04:16:15;;;;;;;12.13;6.60;;;;;;;;;;5022921;28;20045;-68
2023/01/20 04:18:44;;;;;;;12.45;7.15;;;;;;;;;;5021710;28;20050;-68
2023/01/20 04:21:33;;;;;;;13.75;7.03;;;;;;;;;;5022282;28;20041;-67
2023/01/20 04:24:06;;;;;;;6.30;4.80;;;;;;;;;;5023370;28;20110;-68
2023/01/20 04:26:31;;;;;;;7.97;5.03;;;;;;;;;;5022394;28;20045;-68
2023/01/20 04:28:57;;;;;;;9.32;6.13;;;;;;;;;;5022891;28;20056;-66
2023/01/20 04:31:22;;;;;;;12.40;7.75;;;;;;;;;;5020965;28;21099;-67
2023/01/20 04:33:47;;;;;;;13.35;7.78;;;;;;;;;;5035697;28;20513;-67
2023/01/20 04:36:13;;;;;;;11.65;7.25;;;;;;;;;;5022910;28;20042;-68
2023/01/20 04:38:53;;;;;;;10.35;7.05;;;;;;;;;;4988691;28;20053;-69
2023/01/20 04:41:19;;;;;;;11.80;6.57;;;;;;;;;;5021072;28;20041;-66
2023/01/20 04:43:45;;;;;;;10.80;6.82;;;;;;;;;;5022487;28;20041;-68
2023/01/20 04:46:12;;;;;;;13.15;7.18;;;;;;;;;;5020547;28;20049;-68
2023/01/20 04:48:37;;;;;;;13.73;8.10;;;;;;;;;;5022719;28;20041;-67
2023/01/20 04:51:04;;;;;;;14.13;7.40;;;;;;;;;;5021290;28;20462;-69
2023/01/20 04:53:29;;;;;;;13.77;7.07;;;;;;;;;;5020745;28;20079;-67
2023/01/20 04:55:55;;;;;;;11.00;7.25;;;;;;;;;;5024204;28;20037;-69
2023/01/20 04:58:20;;;;;;;10.77;6.28;;;;;;;;;;5036704;28;20061;-69
2023/01/20 05:00:45;;;;;;;8.35;5.72;;;;;;;;;;5036761;28;20410;-69
2023/01/20 05:03:11;;;;;;;8.88;6.05;;;;;;;;;;5017581;28;20042;-69
2023/01/20 05:05:36;;;;;;;7.97;4.97;;;;;;;;;;5021801;28;20060;-69
2023/01/20 05:08:03;;;;;;;9.57;4.80;;;;;;;;;;5021437;28;20045;-69
2023/01/20 05:10:31;;;;;;;9.70;5.75;;;;;;;;;;5020854;28;20045;-71
2023/01/20 05:12:57;;;;;;;8.52;5.07;;;;;;;;;;5020146;28;20049;-69
2023/01/20 05:15:23;;;;;;;9.70;5.50;;;;;;;;;;5019247;28;20049;-69
2023/01/20 05:17:48;;;;;;;8.07;5.40;;;;;;;;;;5020825;28;20041;-69
2023/01/20 05:20:13;;;;;;;12.75;5.47;;;;;;;;;;5020712;28;20657;-69
2023/01/20 05:22:39;;;;;;;9.30;5.35;;;;;;;;;;5017767;28;20051;-69
2023/01/20 05:25:05;;;;;;;9.40;5.28;;;;;;;;;;5032045;28;20045;-70
2023/01/20 05:27:34;;;;;;;13.10;6.93;;;;;;;;;;5020506;28;20092;-70
2023/01/20 05:29:59;;;;;;;15.98;9.45;;;;;;;;;;5019805;28;20099;-69
2023/01/20 05:32:25;;;;;;;10.45;7.05;;;;;;;;;;5021506;28;20045;-69
2023/01/20 05:34:50;;;;;;;14.30;8.20;;;;;;;;;;5020510;28;20124;-69
2023/01/20 05:37:17;;;;;;;8.77;6.15;;;;;;;;;;5019284;28;20134;-69
2023/01/20 05:39:42;;;;;;;9.70;5.47;;;;;;;;;;5020849;28;20127;-69
2023/01/20 05:42:08;;;;;;;10.75;5.25;;;;;;;;;;5020935;28;20128;-69
2023/01/20 05:44:34;;;;;;;6.97;4.85;;;;;;;;;;5019631;28;20038;-70
2023/01/20 05:47:00;;;;;;;10.43;5.18;;;;;;;;;;5019378;28;20417;-71
2023/01/20 05:49:26;;;;;;;8.05;5.40;;;;;;;;;;5019945;28;20124;-71
2023/01/20 05:51:52;;;;;;;10.43;5.60;;;;;;;;;;5020143;28;20045;-71
2023/01/20 05:54:17;;;;;;;7.22;5.05;;;;;;;;;;5019552;28;20506;-70
2023/01/20 05:56:42;;;;;;;9.75;6.13;;;;;;;;;;5021465;28;20065;-70
2023/01/20 05:59:08;;;;;;;14.43;5.82;;;;;;;;;;5018630;28;20046;-70
2023/01/20 06:01:34;;;;;;;8.45;5.25;;;;;;;;;;5034842;28;20049;-70
2023/01/20 06:03:59;;;;;;;10.68;5.70;;;;;;;;;;5019394;28;20457;-70
2023/01/20 06:06:25;;;;;;;7.90;4.68;;;;;;;;;;5020951;28;20049;-70
2023/01/20 06:08:51;;;;;;;10.73;5.10;;;;;;;;;;5019737;28;20041;-70
2023/01/20 06:11:17;;;;;;;11.82;6.50;;;;;;;;;;5019596;28;20048;-70
2023/01/20 06:13:45;;;;;;;10.95;6.25;;;;;;;;;;5024564;28;20079;-70
2023/01/20 06:16:10;;;;;;;12.30;6.55;;;;;;;;;;5018112;28;20226;-70
2023/01/20 06:18:35;;;;;;;11.90;6.80;;;;;;;;;;5017718;28;20482;-70
2023/01/20 06:21:01;;;;;;;14.82;7.05;;;;;;;;;;5017528;28;20041;-70
2023/01/20 06:23:27;;;;;;;14.65;6.50;;;;;;;;;;5017063;28;20052;-69
2023/01/20 06:25:59;;;;;;;10.40;6.45;;;;;;;;;;5017943;28;20394;-69
2023/01/20 06:28:25;;;;;;;10.70;5.95;;;;;;;;;;5018656;28;20084;-69
2023/01/20 06:30:57;;;;;;;11.50;6.00;;;;;;;;;;5018260;28;20080;-69
2023/01/20 06:33:22;;;;;;;11.50;6.10;;;;;;;;;;5018014;28;21680;-70
2023/01/20 06:35:48;;;;;;;10.90;6.60;;;;;;;;;;5018620;28;20049;-69
2023/01/20 06:38:13;;;;;;;14.40;7.47;;;;;;;;;;5019487;28;20057;-69
2023/01/20 06:40:38;;;;;;;16.27;9.38;;;;;;;;;;5021071;28;20477;-69
2023/01/20 06:43:04;;;;;;;11.27;7.20;;;;;;;;;;5019229;28;20051;-70
2023/01/20 06:45:29;;;;;;;17.13;7.43;;;;;;;;;;5020148;28;20045;-69
2023/01/20 06:47:54;;;;;;;13.05;7.10;;;;;;;;;;5026217;28;20121;-69
2023/01/20 06:50:20;;;;;;;10.05;6.78;;;;;;;;;;5020502;28;20585;-69
2023/01/20 06:52:45;;;;;;;13.85;6.72;;;;;;;;;;5019810;28;20045;-69
2023/01/20 06:55:11;;;;;;;11.65;6.50;;;;;;;;;;5017593;28;20053;-69
2023/01/20 06:57:36;;;;;;;11.32;6.22;;;;;;;;;;5018599;28;20037;-69
2023/01/20 07:00:03;;;;;;;10.43;6.05;;;;;;;;;;5018906;28;20049;-69
2023/01/20 07:02:29;;;;;;;10.50;5.97;;;;;;;;;;5018151;28;20148;-69
2023/01/20 07:04:54;;;;;;;9.45;5.50;;;;;;;;;;5016969;28;20124;-69
2023/01/20 07:07:19;;;;;;;8.57;4.97;;;;;;;;;;5018142;28;20064;-69
2023/01/20 07:09:45;;;;;;;8.50;5.28;;;;;;;;;;5019426;28;20078;-69
2023/01/20 07:12:10;;;;;;;12.10;5.72;;;;;;;;;;5020284;28;20522;-69
2023/01/20 07:14:36;;;;;;;11.43;5.90;;;;;;;;;;5018972;28;20052;-69
2023/01/20 07:17:01;;;;;;;9.20;5.32;;;;;;;;;;5034848;28;20128;-69
2023/01/20 07:19:26;;;;;;;8.98;5.88;;;;;;;;;;5016069;28;20042;-70
2023/01/20 07:21:52;;;;;;;11.35;5.63;;;;;;;;;;5024495;28;20044;-70
2023/01/20 07:24:17;;;;;;;7.70;5.75;;;;;;;;;;5040950;28;20046;-70
2023/01/20 07:26:43;;;;;;;10.45;6.18;;;;;;;;;;5025110;28;20072;-69
2023/01/20 07:29:08;;;;;;;8.90;5.43;;;;;;;;;;5026785;28;20050;-71
2023/01/20 07:31:34;;;;;;;6.68;5.07;;;;;;;;;;5042330;28;20073;-71
2023/01/20 07:33:59;;;;;;;7.85;4.80;;;;;;;;;;5025120;28;20038;-68
2023/01/20 07:36:25;;;;;;;8.30;4.90;;;;;;;;;;5027351;28;20045;-71
2023/01/20 07:38:52;;;;;;;10.65;5.28;;;;;;;;;;5027693;28;20064;-68
2023/01/20 07:41:18;;;;;;;6.45;5.10;;;;;;;;;;5023535;28;20053;-69
2023/01/20 07:43:45;;;;;;;10.18;6.53;;;;;;;;;;5027368;28;20053;-68
2023/01/20 07:46:12;;;;;;;10.90;6.47;;;;;;;;;;5042190;28;20046;-69
2023/01/20 07:48:37;;;;;;;8.15;6.07;;;;;;;;;;5022517;28;20119;-68
2023/01/20 07:51:06;;;;;;;12.55;6.32;;;;;;;;;;5024010;28;20038;-71
2023/01/20 07:53:35;;;;;;;13.45;6.30;;;;;;;;;;5022361;28;20136;-70
2023/01/20 07:56:02;;;;;;;12.60;6.72;;;;;;;;;;5025040;28;20054;-70
2023/01/20 07:58:28;;;;;;;8.85;6.10;;;;;;;;;;5025600;28;20558;-69
2023/01/20 08:00:54;;;;;;;11.00;6.03;;;;;;;;;;5026809;28;20048;-70
2023/01/20 08:03:19;;;;;;;9.77;6.53;;;;;;;;;;5023552;28;20058;-69
2023/01/20 08:05:46;;;;;;;12.25;7.03;;;;;;;;;;5024516;28;20101;-70
2023/01/20 08:08:11;;;;;;;10.77;5.60;;;;;;;;;;5039671;28;20072;-69
2023/01/20 08:10:36;;;;;;;8.73;5.60;;;;;;;;;;5024047;28;20042;-70
2023/01/20 08:13:02;;;;;;;9.50;6.07;;;;;;;;;;5024770;28;20593;-69
2023/01/20 08:15:27;;;;;;;7.88;5.65;;;;;;;;;;5028817;28;20055;-69
2023/01/20 08:17:54;;;;;;;5.70;3.83;;;;;;;;;;5043036;28;20045;-69
2023/01/20 08:20:19;;;;;;;7.97;5.22;;;;;;;;;;5025213;28;20410;-69
2023/01/20 08:22:45;;;;;;;12.93;7.13;;;;;;;;;;5024578;28;20443;-68
2023/01/20 08:25:10;;;;;;;8.98;5.25;;;;;;;;;;5023101;28;20056;-69
2023/01/20 08:27:36;;;;;;;10.73;6.53;;;;;;;;;;5024052;28;20049;-69
2023/01/20 08:30:01;;;;;;;10.60;7.47;;;;;;;;;;5025158;28;20060;-69
2023/01/20 08:32:28;;;;;;;14.35;7.03;;;;;;;;;;5023462;28;20084;-70
2023/01/20 08:34:53;;;;;;;12.30;6.22;;;;;;;;;;5027468;28;20068;-70
2023/01/20 08:37:19;;;;;;;13.32;6.53;;;;;;;;;;5028148;28;20502;-70
2023/01/20 08:39:44;;;;;;;11.30;6.88;;;;;;;;;;5043944;28;20124;-69
2023/01/20 08:42:10;;;;;;;14.65;5.97;;;;;;;;;;5030317;28;20411;-69
2023/01/20 08:44:35;;;;;;;9.32;6.00;;;;;;;;;;5029895;28;20038;-69
2023/01/20 08:47:02;;;;;;;12.05;6.32;;;;;;;;;;5028997;28;20054;-70
2023/01/20 08:49:28;;;;;;;10.05;5.82;;;;;;;;;;5026583;28;20503;-70
2023/01/20 08:51:55;;;;;;;10.68;6.70;;;;;;;;;;5026165;28;20485;-70
2023/01/20 08:54:21;;;;;;;9.38;6.35;;;;;;;;;;5021907;28;20188;-70
2023/01/20 08:56:51;;;;;;;11.52;6.53;;;;;;;;;;5026932;28;20053;-70
2023/01/20 08:59:17;;;;;;;10.63;4.40;;;;;;;;;;5028620;28;20049;-70
2023/01/20 09:01:42;;;;;;;9.27;6.03;;;;;;;;;;5027041;28;20045;-70
2023/01/20 09:04:08;;;;;;;13.60;5.35;;;;;;;;;;5027831;28;20619;-70
2023/01/20 09:06:42;;;;;;;7.22;4.57;;;;;;;;;;5022055;28;20054;-70
2023/01/20 09:09:09;;;;;;;7.53;5.07;;;;;;;;;;5023115;28;20057;-69
2023/01/20 09:11:34;;;;;;;8.60;5.68;;;;;;;;;;5024168;28;20048;-70
2023/01/20 09:14:00;;;;;;;11.63;5.75;;;;;;;;;;5023948;28;20045;-68
2023/01/20 09:16:25;;;;;;;7.80;5.72;;;;;;;;;;5022153;28;20041;-69
2023/01/20 09:18:51;;;;;;;7.47;4.82;;;;;;;;;;5026284;28;20449;-68
2023/01/20 09:21:16;;;;;;;8.88;5.40;;;;;;;;;;5022108;28;21100;-69
2023/01/20 09:23:42;;;;;;;8.23;5.43;;;;;;;;;;5021488;28;20049;-69
2023/01/20 09:26:08;;;;;;;8.98;5.78;;;;;;;;;;5019561;28;20053;-69
2023/01/20 09:28:34;;;;;;;7.25;5.05;;;;;;;;;;5024645;28;20501;-71
2023/01/20 09:31:03;;;;;;;9.30;5.25;;;;;;;;;;5025679;28;20980;-70
2023/01/20 09:33:28;;;;;;;7.28;4.90;;;;;;;;;;5024698;28;20103;-69
2023/01/20 09:35:55;;;;;;;9.50;4.90;;;;;;;;;;5024225;28;20049;-69
2023/01/20 09:44:29;;;;;;;8.50;4.85;;;;;;;;;;5022592;28;20163;-69
2023/01/20 09:47:18;;;;;;;5.72;4.47;;;;;;;;;;5022282;28;20482;-69
2023/01/20 09:53:19;;;;;;;6.40;4.78;;;;;;;;;;5024344;28;20037;-70
2023/01/20 09:55:51;;;;;;;7.75;5.32;;;;;;;;;;5021537;28;20060;-69
2023/01/20 09:58:35;;;;;;;7.75;4.30;;;;;;;;;;5024562;28;20491;-68
2023/01/20 10:01:29;;;;;;;8.93;4.57;;;;;;;;;;5021877;28;20077;-69
2023/01/20 10:04:07;;;;;;;5.38;4.60;;;;;;;;;;5045234;28;20042;-69
2023/01/20 10:06:39;;;;;;;8.20;5.00;;;;;;;;;;5022168;28;20084;-69
2023/01/20 10:09:20;;;;;;;8.10;4.70;;;;;;;;;;5022137;28;20429;-71
2023/01/20 10:11:48;;;;;;;8.40;4.88;;;;;;;;;;5022214;28;20498;-69
2023/01/20 10:14:21;;;;;;;7.18;4.88;;;;;;;;;;5021305;28;20041;-70
2023/01/20 10:16:55;;;;;;;6.70;4.63;;;;;;;;;;5021829;28;20053;-70
2023/01/20 10:19:47;;;;;;;6.40;4.88;;;;;;;;;;5020222;28;20066;-70
2023/01/20 10:23:00;;;;;;;8.48;5.50;;;;;;;;;;5020728;28;20102;-70
2023/01/20 10:25:30;;;;;;;8.00;5.00;;;;;;;;;;4968896;28;20064;-69
2023/01/20 10:28:07;;;;;;;8.35;5.30;;;;;;;;;;4992377;28;20049;-69
2023/01/20 10:30:35;;;;;;;5.00;3.63;;;;;;;;;;4998822;28;20152;-70
2023/01/20 10:33:12;;;;;;;5.97;4.20;;;;;;;;;;5019604;28;20526;-70
2023/01/20 10:35:47;;;;;;;9.07;4.25;;;;;;;;;;5004755;28;20146;-70
2023/01/20 10:38:41;;;;;;;6.53;4.78;;;;;;;;;;5020104;28;20068;-69
2023/01/20 10:41:26;;;;;;;4.93;3.75;;;;;;;;;;5018622;28;20131;-70
2023/01/20 10:43:51;;;;;;;6.07;4.53;;;;;;;;;;5019078;28;20430;-69
2023/01/20 10:46:43;;;;;;;5.63;4.55;;;;;;;;;;5019531;28;20056;-68
2023/01/20 10:49:35;;;;;;;4.88;4.18;;;;;;;;;;5015670;28;20055;-68
2023/01/20 10:52:06;;;;;;;6.68;4.80;;;;;;;;;;5019748;28;20064;-68
2023/01/20 10:55:00;;;;;;;6.53;4.40;;;;;;;;;;5018957;28;20052;-69
2023/01/20 10:57:25;;;;;;;7.03;4.05;;;;;;;;;;5018445;28;20072;-69
2023/01/20 10:59:56;;;;;;;7.20;5.35;;;;;;;;;;5020387;28;20494;-70
2023/01/20 11:02:26;;;;;;;6.47;4.57;;;;;;;;;;5020036;28;20534;-69
2023/01/20 11:04:58;;;;;;;7.57;5.28;;;;;;;;;;5018538;28;20056;-69
2023/01/20 11:07:24;;;;;;;;;;;;;;;;;;5019200;28;20170;-69
2023/01/20 11:09:49;;;;;;;7.80;4.30;;;;;;;;;;5020610;28;20301;-69
2023/01/20 11:12:20;;;;;;;4.82;3.17;;;;;;;;;;5020481;28;20048;-68
2023/01/20 11:14:46;;;;;;;7.78;5.40;;;;;;;;;;5019308;28;20474;-68
2023/01/20 11:17:15;;;;;;;4.38;3.97;;;;;;;;;;5017219;28;20069;-69
2023/01/20 11:19:55;;;;;;;8.10;4.75;;;;;;;;;;5020047;28;20077;-69
2023/01/20 11:22:30;;;;;;;6.18;4.50;;;;;;;;;;5018699;28;20138;-69
2023/01/20 11:24:58;;;;;;;5.35;4.18;;;;;;;;;;5018987;28;20065;-69
2023/01/20 11:27:28;;;;;;;5.47;4.60;;;;;;;;;;5016901;28;20153;-68
2023/01/20 11:29:59;;;;;;;6.05;4.32;;;;;;;;;;5019709;28;20056;-70
2023/01/20 11:32:38;;;;;;;4.90;4.28;;;;;;;;;;5019633;28;20418;-69
2023/01/20 11:35:24;;;;;;;6.07;4.10;;;;;;;;;;5019220;28;20046;-70
2023/01/20 11:37:50;;;;;;;5.57;4.28;;;;;;;;;;5038483;28;20060;-70
2023/01/20 11:40:23;;;;;;;5.18;3.85;;;;;;;;;;5019302;28;20072;-68
2023/01/20 11:42:50;;;;;;;5.82;4.00;;;;;;;;;;5020117;28;20132;-68
2023/01/20 11:45:26;;;;;;;4.90;4.05;;;;;;;;;;5018093;28;20103;-67
2023/01/20 11:48:11;;;;;;;5.13;4.07;;;;;;;;;;5020635;28;20140;-68
2023/01/20 11:50:40;;;;;;;7.45;3.90;;;;;;;;;;5022501;28;20139;-69
2023/01/20 11:53:21;;;;;;;4.35;3.67;;;;;;;;;;5021841;28;20073;-68
2023/01/20 11:56:01;;;;;;;5.68;3.95;;;;;;;;;;5022031;28;20060;-68
2023/01/20 11:58:31;;;;;;;4.63;3.85;;;;;;;;;;5023318;28;20052;-68
2023/01/20 12:01:04;;;;;;;4.95;3.20;;;;;;;;;;5021828;28;20045;-69
2023/01/20 12:03:48;;;;;;;3.30;2.95;;;;;;;;;;5022080;28;20045;-69
2023/01/20 12:06:13;;;;;;;3.88;3.00;;;;;;;;;;5021684;28;20150;-69
2023/01/20 12:08:50;;;;;;;5.78;3.33;;;;;;;;;;5023164;28;20494;-70
2023/01/20 12:11:25;;;;;;;4.35;2.90;;;;;;;;;;5020304;28;20096;-70
2023/01/20 12:14:19;;;;;;;5.88;3.80;;;;;;;;;;5021800;28;20045;-69
2023/01/20 12:16:49;;;;;;;3.08;2.65;;;;;;;;;;5015702;28;20045;-69
2023/01/20 12:19:19;;;;;;;4.78;3.03;;;;;;;;;;5022182;28;20049;-69
2023/01/20 12:21:50;;;;;;;4.55;3.45;;;;;;;;;;5021532;28;20084;-70
2023/01/20 12:25:06;;;;;;;7.03;4.00;;;;;;;;;;5021658;28;20717;-69
2023/01/20 12:27:24;;;;;;;4.43;3.38;;;;;;;;;;5021122;28;20053;-70
2023/01/20 12:29:52;;;;;;;3.67;2.83;;;;;;;;;;5022341;28;20045;-70
2023/01/20 12:32:18;;;;;;;4.18;3.65;;;;;;;;;;5036583;28;20071;-69
2023/01/20 12:34:43;;;;;;;5.35;3.30;;;;;;;;;;5032413;28;20790;-69
2023/01/20 12:37:09;;;;;;;6.90;3.50;;;;;;;;;;5032976;28;20048;-69
2023/01/20 12:39:47;;;;;;;7.63;4.35;;;;;;;;;;5020242;28;20057;-69
2023/01/20 12:42:19;;;;;;;4.60;3.22;;;;;;;;;;5020510;28;20433;-69
2023/01/20 12:44:55;;;;;;;4.18;3.22;;;;;;;;;;5033658;28;20049;-70
2023/01/20 12:47:23;;;;;;;3.40;3.08;;;;;;;;;;5020971;28;20056;-69
2023/01/20 12:50:21;;;;;;;4.15;3.10;;;;;;;;;;5035709;28;20472;-69
2023/01/20 12:53:09;;;;;;;5.03;3.95;;;;;;;;;;5014690;28;20072;-69
2023/01/20 12:56:09;;;;;;;7.90;4.30;;;;;;;;;;5017541;28;20436;-68
2023/01/20 12:59:25;;;;;;;5.13;3.67;;;;;;;;;;5019900;28;20453;-69
2023/01/20 13:02:26;;;;;;;9.40;4.78;;;;;;;;;;5012676;28;20037;-70
2023/01/20 13:05:24;;;;;;;3.83;2.50;;;;;;;;;;5019627;28;20148;-70
2023/01/20 13:07:58;;;;;;;4.13;3.03;;;;;;;;;;5028647;28;20045;-68
2023/01/20 13:10:45;;;;;;;3.80;2.90;;;;;;;;;;5018537;28;20072;-70
2023/01/20 13:13:13;;;;;;;4.15;3.40;;;;;;;;;;5019822;28;20051;-70
2023/01/20 13:15:48;;;;;;;7.80;3.40;;;;;;;;;;5035169;28;20053;-71
2023/01/20 13:18:21;;;;;;;4.07;3.28;;;;;;;;;;5019773;28;20148;-71
2023/01/20 13:20:47;;;;;;;3.70;2.97;;;;;;;;;;5020958;28;20049;-71
2023/01/20 13:23:16;;;;;;;2.45;2.25;;;;;;;;;;5020150;28;20045;-70
2023/01/20 13:25:45;;;;;;;3.33;2.47;;;;;;;;;;5018509;28;20925;-72
2023/01/20 13:28:20;;;;;;;2.65;2.28;;;;;;;;;;5019646;28;20068;-70
2023/01/20 13:30:49;;;;;;;2.85;2.10;;;;;;;;;;5020012;28;20417;-70
2023/01/20 13:33:34;;;;;;;5.25;3.05;;;;;;;;;;5020220;28;20033;-70
2023/01/20 13:36:20;;;;;;;4.68;2.80;;;;;;;;;;5016307;28;20100;-70
2023/01/20 13:38:48;;;;;;;2.78;2.20;;;;;;;;;;5007908;28;20042;-71
2023/01/20 13:42:02;;;;;;;6.18;3.38;;;;;;;;;;5012270;28;20060;-70
2023/01/20 13:44:38;;;;;;;2.38;1.80;;;;;;;;;;5007190;28;20091;-71
2023/01/20 13:47:09;;;;;;;3.20;2.90;;;;;;;;;;5016795;28;20383;-70
2023/01/20 13:49:40;;;;;;;2.53;2.33;;;;;;;;;;5014745;28;20053;-71
2023/01/20 13:52:06;;;;;;;5.88;3.58;;;;;;;;;;5016946;28;20121;-70
2023/01/20 13:54:34;;;;;;;4.55;3.63;;;;;;;;;;5015982;28;20133;-70
2023/01/20 13:57:19;;;;;;;9.45;3.40;;;;;;;;;;5015008;28;20065;-70
2023/01/20 13:59:45;;;;;;;3.03;2.33;;;;;;;;;;5044789;28;20037;-70
2023/01/20 14:02:19;;;;;;;4.35;3.10;;;;;;;;;;5017290;28;20047;-70
2023/01/20 14:04:45;;;;;;;5.70;2.70;;;;;;;;;;5018033;28;20041;-71
2023/01/20 14:07:24;;;;;;;3.65;3.25;;;;;;;;;;5017256;28;20045;-70
2023/01/20 14:09:53;;;;;;;3.63;3.33;;;;;;;;;;5019175;28;20062;-70
2023/01/20 14:12:19;;;;;;;7.50;3.33;;;;;;;;;;5016459;28;20128;-70
2023/01/20 14:14:49;;;;;;;4.40;3.45;;;;;;;;;;5016992;28;20525;-70
2023/01/20 14:17:19;;;;;;;4.80;3.53;;;;;;;;;;5015509;28;20095;-71
2023/01/20 14:19:50;;;;;;;4.25;3.22;;;;;;;;;;5017205;28;20517;-71
2023/01/20 14:22:25;;;;;;;5.13;4.18;;;;;;;;;;5016497;28;20846;-70
2023/01/20 14:24:52;;;;;;;5.63;4.53;;;;;;;;;;5016457;28;21044;-70
2023/01/20 14:27:30;;;;;;;4.10;3.42;;;;;;;;;;5014486;28;20038;-69
2023/01/20 14:30:11;;;;;;;5.53;3.97;;;;;;;;;;5014980;28;20534;-71
2023/01/20 14:32:37;;;;;;;6.80;3.92;;;;;;;;;;5016571;28;20070;-71
2023/01/20 14:35:13;;;;;;;5.82;4.80;;;;;;;;;;5031233;28;20103;-69
2023/01/20 14:37:39;;;;;;;6.80;4.15;;;;;;;;;;5044167;28;20545;-69
2023/01/20 14:40:31;;;;;;;8.13;6.07;;;;;;;;;;5032899;28;20056;-69
2023/01/20 14:43:01;;;;;;;6.35;4.60;;;;;;;;;;5011605;28;20152;-69
2023/01/20 14:45:29;;;;;;;9.20;5.43;;;;;;;;;;5014105;28;20037;-69
2023/01/20 14:48:00;;;;;;;12.38;7.32;;;;;;;;;;5017924;28;20140;-69
2023/01/20 14:50:26;;;;;;;10.50;5.63;;;;;;;;;;5017470;28;20053;-69
2023/01/20 14:52:52;;;;;;;10.90;7.30;;;;;;;;;;5017873;28;20498;-69
2023/01/20 14:55:33;;;;;;;7.18;5.32;;;;;;;;;;5014563;28;20033;-69
2023/01/20 14:57:59;;;;;;;10.70;7.05;;;;;;;;;;5017731;28;20056;-69
2023/01/20 15:00:27;;;;;;;13.48;8.32;;;;;;;;;;5017266;28;20072;-70
2023/01/20 15:03:28;;;;;;;10.88;7.20;;;;;;;;;;5017687;28;20991;-69
2023/01/20 15:05:55;;;;;;;11.65;7.30;;;;;;;;;;5043138;28;20045;-70